Time;durP1;ratioP1;P1;durP2;ratioP2;P2;SDS_P1;SDS_P2;PMS_P1;PMS_P2;Temp;Humidity;BMP_temperature;BMP_pressure;BME280_temperature;BME280_humidity;BME280_pressure;Samples;Min_cycle;Max_cycle;Signal;HPM_P1;HPM_P2
2021/12/04 00:00:55;;;;;;;4.23;2.63;;;3.50;99.90;;;;;;5068105;28;20636;-78
2021/12/04 00:03:21;;;;;;;3.20;2.80;;;3.40;99.90;;;;;;5067327;28;20182;-78
2021/12/04 00:05:54;;;;;;;2.90;2.37;;;3.40;99.90;;;;;;5067503;28;20193;-78
2021/12/04 00:08:21;;;;;;;3.03;2.73;;;3.40;99.90;;;;;;5049626;28;20554;-78
2021/12/04 00:10:47;;;;;;;3.40;2.70;;;3.40;99.90;;;;;;5050423;28;20189;-78
2021/12/04 00:13:13;;;;;;;3.37;2.63;;;3.50;99.90;;;;;;5053290;28;20227;-78
2021/12/04 00:15:38;;;;;;;3.83;3.00;;;3.40;99.90;;;;;;5053667;28;20219;-78
2021/12/04 00:18:04;;;;;;;3.73;2.80;;;3.40;99.90;;;;;;5071221;28;20200;-78
2021/12/04 00:20:30;;;;;;;3.93;3.10;;;3.40;99.90;;;;;;5070653;28;20185;-81
2021/12/04 00:22:59;;;;;;;3.83;3.17;;;3.40;99.90;;;;;;5053581;28;20231;-79
2021/12/04 00:25:25;;;;;;;3.20;2.60;;;3.50;99.90;;;;;;5072545;28;20177;-79
2021/12/04 00:27:51;;;;;;;3.10;2.80;;;3.50;99.90;;;;;;5072240;28;20197;-78
2021/12/04 00:30:17;;;;;;;2.87;2.60;;;3.50;99.90;;;;;;5072864;28;20185;-77
2021/12/04 00:32:52;;;;;;;3.47;2.93;;;3.50;99.90;;;;;;5073127;28;20241;-80
2021/12/04 00:35:31;;;;;;;3.43;3.07;;;3.50;99.90;;;;;;5054117;28;20239;-78
2021/12/04 00:43:18;;;;;;;3.77;2.80;;;3.50;99.90;;;;;;5054608;28;20704;-79
2021/12/04 00:49:16;;;;;;;3.10;2.60;;;3.40;99.90;;;;;;5071340;28;20270;-78
2021/12/04 00:51:50;;;;;;;3.50;2.80;;;3.50;99.90;;;;;;5072270;28;20178;-79
2021/12/04 00:54:17;;;;;;;3.97;2.73;;;3.50;99.90;;;;;;5061699;28;20219;-79
2021/12/04 00:56:44;;;;;;;3.73;2.80;;;3.40;99.90;;;;;;5053046;28;20212;-78
2021/12/04 00:59:10;;;;;;;2.90;2.60;;;3.40;99.90;;;;;;5053441;28;20290;-80
2021/12/04 01:01:40;;;;;;;4.00;2.90;;;3.30;99.90;;;;;;5070980;28;20269;-82
2021/12/04 01:04:14;;;;;;;4.77;3.10;;;3.40;99.90;;;;;;5052497;28;20185;-80
2021/12/04 01:06:40;;;;;;;5.23;3.03;;;3.50;99.90;;;;;;5052387;28;20181;-80
2021/12/04 01:09:09;;;;;;;4.93;2.70;;;3.50;99.90;;;;;;5070567;28;20237;-78
2021/12/04 01:11:36;;;;;;;3.97;3.10;;;3.60;99.90;;;;;;5071073;28;20200;-79
2021/12/04 01:14:02;;;;;;;3.70;3.03;;;3.50;99.90;;;;;;5052857;28;20220;-78
2021/12/04 01:16:27;;;;;;;3.33;2.70;;;3.50;99.90;;;;;;5052540;28;20190;-79
2021/12/04 01:18:53;;;;;;;4.00;2.67;;;3.50;99.90;;;;;;5060777;28;20266;-79
2021/12/04 01:21:19;;;;;;;4.40;3.10;;;3.40;99.90;;;;;;5052739;28;20667;-79
2021/12/04 01:23:45;;;;;;;3.77;3.23;;;3.30;99.90;;;;;;5052733;28;20192;-79
2021/12/04 01:26:10;;;;;;;6.03;3.30;;;3.40;99.90;;;;;;5053154;28;20276;-81
2021/12/04 01:28:36;;;;;;;4.20;3.03;;;3.40;99.90;;;;;;5070492;28;20205;-79
2021/12/04 01:31:02;;;;;;;3.50;3.10;;;3.40;99.90;;;;;;5052718;28;20186;-78
2021/12/04 01:33:28;;;;;;;3.47;3.10;;;3.50;99.90;;;;;;5052455;28;20684;-79
2021/12/04 01:35:53;;;;;;;3.70;3.07;;;3.50;99.90;;;;;;5071202;28;20177;-77
2021/12/04 01:38:19;;;;;;;3.07;2.73;;;3.40;99.90;;;;;;5052810;28;20289;-79
2021/12/04 01:40:45;;;;;;;5.27;3.13;;;3.40;99.90;;;;;;5070677;28;20235;-79
2021/12/04 01:43:11;;;;;;;3.57;3.27;;;3.40;99.90;;;;;;5070597;28;20181;-77
2021/12/04 01:45:36;;;;;;;3.40;3.10;;;3.50;99.90;;;;;;5052042;28;20189;-80
2021/12/04 01:48:03;;;;;;;3.13;2.57;;;3.40;99.90;;;;;;5070019;28;20205;-79
2021/12/04 01:50:30;;;;;;;3.50;3.00;;;3.40;99.90;;;;;;5052250;28;20217;-79
2021/12/04 01:52:59;;;;;;;3.70;2.87;;;3.40;99.90;;;;;;5052148;28;20201;-81
2021/12/04 01:55:26;;;;;;;3.33;2.60;;;3.40;99.90;;;;;;5060540;28;20182;-80
2021/12/04 01:57:52;;;;;;;3.87;2.80;;;3.40;99.90;;;;;;5051225;28;20221;-80
2021/12/04 02:00:17;;;;;;;3.73;2.77;;;3.40;99.90;;;;;;5052402;28;20211;-79
2021/12/04 02:02:43;;;;;;;3.10;2.47;;;3.40;99.90;;;;;;5051638;28;20242;-78
2021/12/04 02:05:09;;;;;;;3.70;3.10;;;3.40;99.90;;;;;;5052720;28;20208;-79
2021/12/04 02:07:34;;;;;;;2.57;2.37;;;3.50;99.90;;;;;;5069983;28;20193;-79
2021/12/04 02:10:03;;;;;;;3.43;2.93;;;3.40;99.90;;;;;;5052205;28;20550;-81
2021/12/04 02:12:28;;;;;;;3.37;2.30;;;3.40;99.90;;;;;;5070078;28;20268;-81
2021/12/04 02:14:57;;;;;;;3.63;3.30;;;3.30;99.90;;;;;;5070267;28;20281;-79
2021/12/04 02:17:23;;;;;;;3.43;3.10;;;3.30;99.90;;;;;;5051804;28;20187;-80
2021/12/04 02:19:48;;;;;;;4.27;2.77;;;3.30;99.90;;;;;;5051904;28;20280;-79
2021/12/04 02:22:15;;;;;;;3.37;3.07;;;3.30;99.90;;;;;;5051964;28;20177;-80
2021/12/04 02:24:41;;;;;;;3.30;2.70;;;3.30;99.90;;;;;;5051764;28;20213;-79
2021/12/04 02:27:07;;;;;;;2.87;2.63;;;3.20;99.90;;;;;;5051573;28;20608;-80
2021/12/04 02:29:32;;;;;;;4.03;3.50;;;3.10;99.90;;;;;;5051571;28;20627;-77
2021/12/04 02:32:01;;;;;;;3.10;2.80;;;3.10;99.90;;;;;;5052293;28;20193;-81
2021/12/04 02:34:29;;;;;;;4.90;2.97;;;3.10;99.90;;;;;;5050624;28;20213;-81
2021/12/04 02:36:56;;;;;;;3.80;3.00;;;3.10;99.90;;;;;;5069484;28;20185;-79
2021/12/04 02:39:34;;;;;;;3.40;2.97;;;3.00;99.90;;;;;;5056663;28;20206;-79
2021/12/04 02:42:00;;;;;;;3.73;3.13;;;3.00;99.90;;;;;;5057448;28;20211;-79
2021/12/04 02:44:40;;;;;;;4.33;3.00;;;2.90;99.90;;;;;;5056060;28;20253;-79
2021/12/04 02:47:06;;;;;;;3.77;2.87;;;2.90;99.90;;;;;;5071524;28;20204;-80
2021/12/04 02:49:32;;;;;;;3.20;2.80;;;3.10;99.90;;;;;;5051636;28;20227;-78
2021/12/04 02:52:02;;;;;;;3.80;3.00;;;3.10;99.90;;;;;;5069419;28;20618;-79
2021/12/04 02:54:29;;;;;;;4.87;3.20;;;3.10;99.90;;;;;;5068817;28;20220;-81
2021/12/04 02:56:55;;;;;;;4.73;3.13;;;3.20;99.90;;;;;;5050368;28;20186;-77
2021/12/04 02:59:20;;;;;;;3.70;3.03;;;3.30;99.90;;;;;;5068896;28;20217;-78
2021/12/04 03:01:46;;;;;;;3.60;2.90;;;3.20;99.90;;;;;;5050314;28;20189;-80
2021/12/04 03:04:13;;;;;;;3.70;2.93;;;3.20;99.90;;;;;;5068134;28;20561;-79
2021/12/04 03:06:41;;;;;;;3.53;3.07;;;3.10;99.90;;;;;;5067787;28;20200;-78
2021/12/04 03:09:07;;;;;;;3.07;2.70;;;3.00;99.90;;;;;;5048930;28;20205;-78
2021/12/04 03:11:33;;;;;;;3.23;2.93;;;3.00;99.90;;;;;;5049207;28;20189;-79
2021/12/04 03:14:00;;;;;;;2.97;2.67;;;3.00;99.90;;;;;;5049462;28;20756;-79
2021/12/04 03:16:25;;;;;;;3.20;2.67;;;2.90;99.90;;;;;;5066605;28;20174;-75
2021/12/04 03:18:51;;;;;;;3.13;2.83;;;3.00;99.90;;;;;;5067522;28;20566;-75
2021/12/04 03:21:17;;;;;;;2.67;2.47;;;2.90;99.90;;;;;;5067271;28;20194;-80
2021/12/04 03:23:52;;;;;;;2.83;2.40;;;3.00;99.90;;;;;;5048813;28;20655;-80
2021/12/04 03:26:19;;;;;;;3.40;2.50;;;3.00;99.90;;;;;;5047538;28;20188;-79
2021/12/04 03:28:45;;;;;;;2.47;2.07;;;3.10;99.90;;;;;;5048509;28;20209;-77
2021/12/04 03:31:15;;;;;;;2.97;1.90;;;3.20;99.90;;;;;;5067020;28;20247;-78
2021/12/04 03:41:53;;;;;;;2.13;1.93;;;3.30;99.90;;;;;;5065545;28;20184;-80
2021/12/04 03:44:19;;;;;;;2.13;1.93;;;3.20;99.90;;;;;;5065534;28;20188;-79
2021/12/04 03:46:47;;;;;;;2.43;2.07;;;3.30;99.90;;;;;;5065208;28;20216;-80
2021/12/04 03:49:13;;;;;;;2.23;1.60;;;3.30;99.90;;;;;;5067787;28;20214;-77
2021/12/04 03:51:38;;;;;;;1.93;1.73;;;3.30;99.90;;;;;;5051127;28;20651;-80
2021/12/04 03:54:04;;;;;;;2.03;1.83;;;3.30;99.90;;;;;;5068656;28;20687;-79
2021/12/04 03:56:31;;;;;;;2.13;1.93;;;3.30;99.90;;;;;;5049975;28;20339;-78
2021/12/04 03:58:57;;;;;;;2.43;1.83;;;3.40;99.90;;;;;;5050531;28;20216;-81
2021/12/04 04:01:23;;;;;;;3.27;2.10;;;3.30;99.90;;;;;;5068214;28;20181;-81
2021/12/04 04:03:48;;;;;;;2.20;2.00;;;3.30;99.90;;;;;;5069253;28;20200;-78
2021/12/04 04:06:14;;;;;;;2.40;2.20;;;3.20;99.90;;;;;;5050172;28;20723;-78
2021/12/04 04:08:40;;;;;;;2.10;1.90;;;3.10;99.90;;;;;;5050253;28;20213;-79
2021/12/04 04:11:07;;;;;;;2.47;2.23;;;3.10;99.90;;;;;;5050581;28;20661;-80
2021/12/04 04:13:32;;;;;;;2.23;2.03;;;3.00;99.90;;;;;;5051029;28;20212;-78
2021/12/04 04:16:00;;;;;;;2.47;2.27;;;3.10;99.90;;;;;;5050323;28;20190;-82
2021/12/04 04:18:27;;;;;;;2.40;2.07;;;3.10;99.90;;;;;;5068291;28;20231;-77
2021/12/04 04:20:52;;;;;;;2.50;2.07;;;3.10;99.90;;;;;;5049965;28;20931;-81
2021/12/04 04:23:18;;;;;;;2.97;2.40;;;3.10;99.90;;;;;;5068579;28;20214;-81
2021/12/04 04:25:43;;;;;;;3.17;2.30;;;3.20;99.90;;;;;;5050835;28;20188;-80
2021/12/04 04:28:09;;;;;;;2.70;2.50;;;3.10;99.90;;;;;;5050178;28;20205;-80
2021/12/04 04:30:36;;;;;;;2.87;2.50;;;3.10;99.90;;;;;;5050320;28;20182;-76
2021/12/04 04:33:03;;;;;;;2.60;2.40;;;3.10;99.90;;;;;;5049933;28;20217;-80
2021/12/04 04:35:31;;;;;;;2.80;2.33;;;3.00;99.90;;;;;;5051035;28;20185;-79
2021/12/04 05:12:49;;;;;;;3.13;2.30;;;3.00;99.90;;;;;;5070584;28;20244;-78
2021/12/04 05:15:23;;;;;;;2.57;2.37;;;3.00;99.90;;;;;;5060733;28;20257;-81
2021/12/04 05:20:21;;;;;;;2.53;1.93;;;3.00;99.90;;;;;;5071264;28;20217;-78
2021/12/04 05:22:47;;;;;;;3.40;2.50;;;3.00;99.90;;;;;;5061906;28;20196;-76
2021/12/04 05:25:13;;;;;;;2.50;1.93;;;3.00;99.90;;;;;;5070055;28;20243;-80
2021/12/04 05:27:39;;;;;;;2.83;2.03;;;3.00;99.90;;;;;;5051684;28;20288;-80
2021/12/04 05:30:06;;;;;;;2.00;1.80;;;3.00;99.90;;;;;;5052593;28;20272;-82
2021/12/04 05:32:32;;;;;;;3.60;2.37;;;3.00;99.90;;;;;;5070164;28;20264;-78
2021/12/04 05:34:57;;;;;;;2.87;2.27;;;3.00;99.90;;;;;;5052041;28;20738;-75
2021/12/04 05:37:23;;;;;;;2.63;2.03;;;3.10;99.90;;;;;;5070035;28;20185;-80
2021/12/04 05:39:49;;;;;;;2.47;1.80;;;3.00;99.90;;;;;;5052156;28;20203;-81
2021/12/04 05:42:14;;;;;;;2.07;1.87;;;3.10;99.90;;;;;;5051891;28;20228;-79
2021/12/04 05:44:41;;;;;;;3.43;2.60;;;3.20;99.90;;;;;;5052214;28;20721;-78
2021/12/04 05:47:23;;;;;;;2.23;2.03;;;3.10;99.90;;;;;;5069590;28;20225;-80
2021/12/04 05:50:01;;;;;;;2.47;2.27;;;3.10;99.90;;;;;;5069961;28;20640;-78
2021/12/04 05:57:33;;;;;;;2.30;2.07;;;3.10;99.90;;;;;;5068901;28;20200;-76
2021/12/04 05:59:59;;;;;;;2.80;2.37;;;3.10;99.90;;;;;;5069723;28;20185;-77
2021/12/04 06:02:24;;;;;;;2.50;2.17;;;3.00;99.90;;;;;;5051600;28;21174;-78
2021/12/04 06:04:50;;;;;;;2.67;2.20;;;3.10;99.90;;;;;;5069941;28;20186;-80
2021/12/04 06:07:16;;;;;;;3.20;2.73;;;3.00;99.90;;;;;;5069743;28;20193;-79
2021/12/04 06:09:41;;;;;;;2.97;2.63;;;3.10;99.90;;;;;;5068518;28;20573;-77
2021/12/04 06:12:08;;;;;;;2.93;2.60;;;3.00;99.90;;;;;;5069773;28;20193;-80
2021/12/04 06:14:34;;;;;;;3.03;2.73;;;3.00;99.90;;;;;;5069528;28;20212;-79
2021/12/04 06:17:01;;;;;;;4.40;3.13;;;3.00;99.90;;;;;;5050493;28;20242;-78
2021/12/04 06:22:37;;;;;;;2.83;2.53;;;2.90;99.90;;;;;;5050907;28;20228;-78
2021/12/04 06:24:57;;;;;;;3.20;2.87;;;2.90;99.90;;;;;;5074342;28;20269;-78
2021/12/04 06:27:23;;;;;;;3.63;3.10;;;2.90;99.90;;;;;;5071697;28;20261;-76
2021/12/04 06:29:49;;;;;;;3.20;2.60;;;2.90;99.90;;;;;;5071515;28;20186;-78
2021/12/04 06:32:14;;;;;;;3.20;2.50;;;2.80;99.90;;;;;;5071318;28;20208;-79
2021/12/04 06:34:40;;;;;;;3.57;2.90;;;2.90;99.90;;;;;;5071425;28;20663;-79
2021/12/04 06:37:06;;;;;;;4.10;2.70;;;2.80;99.90;;;;;;5071479;28;20186;-77
2021/12/04 06:39:31;;;;;;;4.07;2.60;;;2.80;99.90;;;;;;5071161;28;20236;-80
2021/12/04 06:41:57;;;;;;;3.20;2.70;;;2.80;99.90;;;;;;5071053;28;20193;-78
2021/12/04 06:44:22;;;;;;;3.43;3.10;;;2.90;99.90;;;;;;5071425;28;20186;-78
2021/12/04 06:46:48;;;;;;;4.20;3.20;;;2.90;99.90;;;;;;5053152;28;20721;-78
2021/12/04 06:49:27;;;;;;;2.93;2.60;;;2.80;99.90;;;;;;5052210;28;21031;-80
2021/12/04 06:51:57;;;;;;;3.33;2.73;;;2.90;99.90;;;;;;5070616;28;20185;-77
2021/12/04 06:54:27;;;;;;;3.33;2.90;;;2.90;99.90;;;;;;5061067;28;20292;-77
2021/12/04 06:56:52;;;;;;;2.97;2.63;;;2.80;99.90;;;;;;5051974;28;20188;-78
2021/12/04 06:59:23;;;;;;;3.33;2.50;;;2.90;99.90;;;;;;5070169;28;20217;-78
2021/12/04 07:01:48;;;;;;;3.90;2.57;;;2.90;99.90;;;;;;5070953;28;20380;-79
2021/12/04 07:04:17;;;;;;;3.73;2.70;;;2.90;99.90;;;;;;5071393;28;20501;-80
2021/12/04 07:06:48;;;;;;;2.67;2.43;;;2.90;99.90;;;;;;5053266;28;20185;-79
2021/12/04 07:09:14;;;;;;;3.20;2.37;;;2.90;99.90;;;;;;5064937;28;20240;-77
2021/12/04 07:11:40;;;;;;;3.07;2.43;;;2.90;99.90;;;;;;5089730;28;20194;-77
2021/12/04 07:14:06;;;;;;;2.83;2.53;;;2.90;99.90;;;;;;5074589;28;20212;-80
2021/12/04 07:16:32;;;;;;;4.17;3.50;;;2.90;99.90;;;;;;5054750;28;20188;-79
2021/12/04 07:18:58;;;;;;;8.00;7.20;;;3.00;99.90;;;;;;5072738;28;20257;-80
2021/12/04 07:21:24;;;;;;;8.30;7.50;;;3.00;99.90;;;;;;5053041;28;20212;-80
2021/12/04 07:23:50;;;;;;;5.50;4.60;;;3.00;99.90;;;;;;5072202;28;20691;-79
2021/12/04 07:26:17;;;;;;;9.50;7.20;;;2.90;99.90;;;;;;5064783;28;20192;-80
2021/12/04 07:28:42;;;;;;;20.43;15.23;;;2.80;99.90;;;;;;5050864;28;20212;-79
2021/12/04 07:31:08;;;;;;;27.60;21.63;;;2.90;99.90;;;;;;5069764;28;20174;-80
2021/12/04 07:33:34;;;;;;;51.63;34.83;;;2.80;99.90;;;;;;5067344;28;20213;-80
2021/12/04 07:36:00;;;;;;;20.37;13.63;;;2.80;99.90;;;;;;5051261;28;20182;-81
2021/12/04 07:38:27;;;;;;;9.17;5.70;;;2.80;99.90;;;;;;5051605;28;20212;-80
2021/12/04 07:40:53;;;;;;;7.63;5.40;;;2.80;99.90;;;;;;5050919;28;20272;-80
2021/12/04 07:43:19;;;;;;;10.40;6.47;;;2.80;99.90;;;;;;5067329;28;20249;-76
2021/12/04 07:45:45;;;;;;;6.60;4.97;;;2.80;99.90;;;;;;5068266;28;20185;-80
2021/12/04 07:48:10;;;;;;;15.30;9.10;;;2.80;99.90;;;;;;5050852;28;20296;-81
2021/12/04 07:50:37;;;;;;;8.30;6.27;;;2.80;99.90;;;;;;5068727;28;20190;-80
2021/12/04 07:53:03;;;;;;;9.73;6.37;;;2.80;99.90;;;;;;5048590;28;20262;-78
2021/12/04 07:55:30;;;;;;;6.63;4.77;;;2.90;99.90;;;;;;5056574;28;20185;-78
2021/12/04 07:57:55;;;;;;;6.13;4.47;;;2.90;99.90;;;;;;5067911;28;20205;-78
2021/12/04 08:00:23;;;;;;;5.60;4.23;;;2.90;99.90;;;;;;5051715;28;20246;-78
2021/12/04 08:02:49;;;;;;;8.30;5.63;;;3.00;99.90;;;;;;5051482;28;20216;-78
2021/12/04 08:05:17;;;;;;;5.97;4.60;;;3.00;99.90;;;;;;5048288;28;20315;-78
2021/12/04 08:07:43;;;;;;;10.83;7.00;;;3.00;99.90;;;;;;5050636;28;20205;-78
2021/12/04 08:10:12;;;;;;;7.77;4.93;;;3.00;99.90;;;;;;5050810;28;20186;-79
2021/12/04 08:12:38;;;;;;;6.93;4.53;;;3.00;99.90;;;;;;5067358;28;20717;-79
2021/12/04 08:15:06;;;;;;;4.63;4.10;;;3.00;99.90;;;;;;5050323;28;20220;-80
2021/12/04 08:17:31;;;;;;;6.00;4.40;;;3.00;99.90;;;;;;5068317;28;20216;-77
2021/12/04 08:19:57;;;;;;;5.87;4.20;;;3.00;99.90;;;;;;5050078;28;20565;-77
2021/12/04 08:22:23;;;;;;;5.50;4.43;;;3.20;99.90;;;;;;5050383;28;20192;-80
2021/12/04 08:24:49;;;;;;;5.80;4.70;;;3.20;99.90;;;;;;5049767;28;20178;-79
2021/12/04 08:27:16;;;;;;;5.03;4.50;;;3.20;99.90;;;;;;5068371;28;20220;-78
2021/12/04 08:29:42;;;;;;;6.37;5.20;;;3.10;99.90;;;;;;5068742;28;20332;-80
2021/12/04 08:32:08;;;;;;;5.30;4.27;;;3.10;99.90;;;;;;5070507;28;20620;-81
2021/12/04 08:34:35;;;;;;;5.20;4.20;;;3.10;99.90;;;;;;5053090;28;20993;-79
2021/12/04 08:37:01;;;;;;;5.17;4.30;;;3.10;99.90;;;;;;5052566;28;20184;-79
2021/12/04 08:39:27;;;;;;;5.47;4.20;;;3.10;99.90;;;;;;5052265;28;20683;-78
2021/12/04 08:41:52;;;;;;;5.80;4.17;;;3.10;99.90;;;;;;5054760;28;20182;-79
2021/12/04 08:44:19;;;;;;;5.97;4.40;;;3.10;99.90;;;;;;5052347;28;20228;-80
2021/12/04 08:46:46;;;;;;;6.13;4.40;;;3.10;99.90;;;;;;5072084;28;20193;-79
2021/12/04 08:49:12;;;;;;;6.00;4.20;;;3.20;99.90;;;;;;5054811;28;20193;-80
2021/12/04 08:51:37;;;;;;;6.13;4.53;;;3.30;99.90;;;;;;5055115;28;20208;-79
2021/12/04 08:54:04;;;;;;;5.33;4.43;;;3.40;99.90;;;;;;5054720;28;20224;-80
2021/12/04 08:56:30;;;;;;;5.00;4.37;;;3.40;99.90;;;;;;5072640;28;20334;-80
2021/12/04 08:58:56;;;;;;;6.20;4.73;;;3.40;99.90;;;;;;5072493;28;20224;-79
2021/12/04 09:01:25;;;;;;;4.87;3.90;;;3.50;99.90;;;;;;5071121;28;20575;-78
2021/12/04 09:03:55;;;;;;;5.17;4.37;;;3.50;99.90;;;;;;5054399;28;20209;-78
2021/12/04 09:06:21;;;;;;;5.80;4.13;;;3.60;99.90;;;;;;5070921;28;20181;-81
2021/12/04 09:08:47;;;;;;;4.47;3.97;;;3.60;99.90;;;;;;5054611;28;20228;-80
2021/12/04 09:11:18;;;;;;;6.97;4.27;;;3.60;99.90;;;;;;5053875;28;20193;-79
2021/12/04 09:13:44;;;;;;;4.60;3.93;;;3.60;99.90;;;;;;5071331;28;20197;-81
2021/12/04 09:16:11;;;;;;;5.73;4.67;;;3.60;99.90;;;;;;5073107;28;20698;-79
2021/12/04 09:18:36;;;;;;;5.63;4.30;;;3.70;99.90;;;;;;5064890;28;20534;-79
2021/12/04 09:21:05;;;;;;;6.23;4.50;;;3.60;99.90;;;;;;5054095;28;20239;-78
2021/12/04 09:23:36;;;;;;;111.80;12.43;;;3.70;99.90;;;;;;5071320;28;20191;-78
2021/12/04 09:26:04;;;;;;;107.03;10.67;;;3.70;99.90;;;;;;5072794;28;20170;-79
2021/12/04 09:28:56;;;;;;;145.73;13.53;;;3.70;99.90;;;;;;5071103;28;20233;-81
2021/12/04 09:34:28;;;;;;;31.67;7.30;;;3.90;99.90;;;;;;5072734;28;20219;-79
2021/12/04 10:04:38;;;;;;;5.37;3.40;;;4.20;99.90;;;;;;5070815;28;20189;-81
2021/12/04 10:16:04;;;;;;;4.50;4.07;;;4.20;99.90;;;;;;5073509;28;20603;-79
2021/12/04 10:21:15;;;;;;;4.90;3.70;;;4.20;99.90;;;;;;5073064;28;20182;-79
2021/12/04 10:32:55;;;;;;;25.03;17.27;;;4.60;99.90;;;;;;5072080;28;20853;-80
2021/12/04 10:34:49;;;;;;;51.87;34.30;;;4.60;99.90;;;;;;5059340;28;21064;-77
2021/12/04 10:37:23;;;;;;;11.67;8.77;;;4.60;99.90;;;;;;5052004;28;20181;-77
2021/12/04 10:39:55;;;;;;;5.23;4.33;;;4.60;99.90;;;;;;5070681;28;20330;-80
2021/12/04 10:42:25;;;;;;;7.43;5.93;;;4.60;99.90;;;;;;5071619;28;20611;-81
2021/12/04 10:44:53;;;;;;;12.03;8.40;;;4.70;99.90;;;;;;5052613;28;20216;-79
2021/12/04 10:47:22;;;;;;;5.80;4.17;;;4.90;99.90;;;;;;5070069;28;21173;-77
2021/12/04 10:53:01;;;;;;;6.60;4.30;;;5.10;99.90;;;;;;5071778;28;20223;-78
2021/12/04 10:58:43;;;;;;;29.20;16.27;;;4.90;99.90;;;;;;5069586;28;20244;-79
2021/12/04 11:01:14;;;;;;;5.03;4.20;;;4.90;99.90;;;;;;5069754;28;20181;-80
2021/12/04 11:43:12;;;;;;;4.10;3.43;;;5.20;99.90;;;;;;5004342;28;20171;-80
2021/12/04 11:45:47;;;;;;;4.20;3.57;;;5.10;99.90;;;;;;5040346;28;20185;-78
2021/12/04 11:48:13;;;;;;;4.37;3.70;;;5.00;99.90;;;;;;5049115;28;20695;-79
2021/12/04 11:50:50;;;;;;;5.43;4.27;;;5.00;99.90;;;;;;5048994;28;20221;-78
2021/12/04 11:53:17;;;;;;;12.57;4.80;;;5.00;99.90;;;;;;5063417;28;20291;-75
2021/12/04 11:55:46;;;;;;;5.90;5.30;;;5.00;99.90;;;;;;5083261;28;20192;-82
2021/12/04 11:58:27;;;;;;;44.90;7.03;;;5.10;99.90;;;;;;5068481;28;20213;-78
2021/12/04 12:00:56;;;;;;;25.83;7.47;;;5.10;99.90;;;;;;5050888;28;20203;-80
2021/12/04 12:03:27;;;;;;;100.70;11.70;;;5.10;99.90;;;;;;5050963;28;20169;-81
2021/12/04 12:05:57;;;;;;;22.33;7.10;;;5.20;99.90;;;;;;5052861;28;20665;-79
2021/12/04 12:08:23;;;;;;;204.33;14.07;;;5.20;99.90;;;;;;5055080;28;20242;-78
2021/12/04 12:10:52;;;;;;;180.23;17.47;;;5.30;99.90;;;;;;5072896;28;20426;-79
2021/12/04 12:13:36;;;;;;;8.27;4.80;;;5.20;99.90;;;;;;5073281;28;20201;-77
2021/12/04 12:16:16;;;;;;;5.37;4.40;;;5.10;99.90;;;;;;5072359;28;20174;-78
2021/12/04 12:18:45;;;;;;;8.57;4.77;;;5.00;99.90;;;;;;5072890;28;20258;-79
2021/12/04 12:21:12;;;;;;;5.63;4.20;;;5.00;99.90;;;;;;5079036;28;20174;-78
2021/12/04 12:38:11;;;;;;;5.27;4.43;;;4.80;99.90;;;;;;5071560;28;20277;-78
2021/12/04 12:40:37;;;;;;;4.93;4.23;;;4.70;99.90;;;;;;5070312;28;20239;-78
2021/12/04 12:43:14;;;;;;;4.90;4.30;;;4.80;99.90;;;;;;5073568;28;20177;-77
2021/12/04 12:45:50;;;;;;;5.33;3.93;;;4.90;99.90;;;;;;5053638;28;20185;-79
2021/12/04 12:48:16;;;;;;;5.23;3.93;;;4.90;99.90;;;;;;5054503;28;20453;-77
2021/12/04 12:50:44;;;;;;;13.93;4.37;;;5.00;99.90;;;;;;5073509;28;20211;-79
2021/12/04 12:53:20;;;;;;;6.20;3.93;;;5.20;99.90;;;;;;5072844;28;20244;-79
2021/12/04 12:55:48;;;;;;;4.37;3.53;;;5.20;99.90;;;;;;5073213;28;20200;-78
2021/12/04 12:58:15;;;;;;;4.37;3.87;;;5.10;99.90;;;;;;5072660;28;20588;-77
2021/12/04 13:12:08;;;;;;;4.23;3.83;;;5.20;99.90;;;;;;5069486;28;20203;-78
2021/12/04 13:14:40;;;;;;;5.03;3.70;;;5.20;99.90;;;;;;5052731;28;20205;-79
2021/12/04 13:17:16;;;;;;;5.17;4.57;;;5.20;99.90;;;;;;5067806;28;20348;-79
2021/12/04 13:19:48;;;;;;;6.37;5.73;;;5.20;99.90;;;;;;5071407;28;20204;-77
2021/12/04 13:22:17;;;;;;;7.10;5.33;;;5.20;99.90;;;;;;5071994;28;20797;-79
2021/12/04 13:24:46;;;;;;;6.37;5.03;;;5.20;99.90;;;;;;5071467;28;20200;-79
2021/12/04 13:29:42;;;;;;;11.00;8.40;;;5.10;99.90;;;;;;5071017;28;20247;-79
2021/12/04 13:32:10;;;;;;;8.83;6.87;;;5.00;99.90;;;;;;5070865;28;20186;-79
2021/12/04 13:34:38;;;;;;;53.50;42.63;;;4.90;99.90;;;;;;5071928;28;20217;-79
2021/12/04 13:37:04;;;;;;;12.00;10.67;;;4.90;99.90;;;;;;5070743;28;20274;-80
2021/12/04 13:39:31;;;;;;;4.07;3.57;;;4.80;99.90;;;;;;5072035;28;20706;-75
2021/12/04 13:41:58;;;;;;;6.27;3.40;;;4.80;99.90;;;;;;5054166;28;20843;-80
2021/12/04 13:44:26;;;;;;;3.40;3.10;;;4.80;99.90;;;;;;5072260;28;20185;-78
2021/12/04 13:47:03;;;;;;;4.10;3.27;;;4.70;99.90;;;;;;5062389;28;20185;-78
2021/12/04 13:49:32;;;;;;;4.20;3.77;;;4.60;99.90;;;;;;5053468;28;20227;-77
2021/12/04 13:52:05;;;;;;;5.57;4.97;;;4.50;99.90;;;;;;5071565;28;20233;-76
2021/12/04 13:54:34;;;;;;;3.80;2.97;;;4.50;99.90;;;;;;5071352;28;20213;-81
2021/12/04 13:57:06;;;;;;;4.03;3.50;;;4.40;99.90;;;;;;5071128;28;20309;-78
2021/12/04 13:59:32;;;;;;;4.60;3.53;;;4.40;99.90;;;;;;5069736;28;20266;-80
2021/12/04 14:01:57;;;;;;;4.33;3.50;;;4.40;99.90;;;;;;5053523;28;20438;-78
2021/12/04 14:04:23;;;;;;;3.83;3.30;;;4.40;99.90;;;;;;5053169;28;20189;-77
2021/12/04 14:07:02;;;;;;;6.43;4.00;;;4.40;99.90;;;;;;5071037;28;20189;-78
2021/12/04 14:09:33;;;;;;;5.03;4.00;;;4.50;99.90;;;;;;5053241;28;20231;-79
2021/12/04 14:11:59;;;;;;;5.13;4.37;;;4.50;99.90;;;;;;5070996;28;21144;-77
2021/12/04 14:14:28;;;;;;;5.80;4.60;;;4.40;99.90;;;;;;5071042;28;20213;-79
2021/12/04 14:16:55;;;;;;;4.53;3.90;;;4.40;99.90;;;;;;5070823;28;20182;-79
2021/12/04 14:19:22;;;;;;;4.37;3.73;;;4.40;99.90;;;;;;5070061;28;20201;-77
2021/12/04 14:21:56;;;;;;;3.87;3.23;;;4.40;99.90;;;;;;5070425;28;20181;-79
2021/12/04 14:24:30;;;;;;;4.57;3.73;;;4.40;99.90;;;;;;5070269;28;20180;-79
2021/12/04 14:26:58;;;;;;;3.83;3.43;;;4.30;99.90;;;;;;5052655;28;20188;-79
2021/12/04 14:29:26;;;;;;;4.10;3.43;;;4.20;99.90;;;;;;5069473;28;20265;-79
2021/12/04 14:31:52;;;;;;;5.17;4.53;;;4.10;99.90;;;;;;5070088;28;20181;-77
2021/12/04 14:34:21;;;;;;;4.27;3.87;;;4.00;99.90;;;;;;5069888;28;20201;-79
2021/12/04 14:36:47;;;;;;;5.83;5.23;;;4.00;99.90;;;;;;5051338;28;20212;-80
2021/12/04 14:39:23;;;;;;;6.20;4.67;;;3.90;99.90;;;;;;5069946;28;20201;-79
2021/12/04 14:41:48;;;;;;;5.43;4.27;;;3.80;99.90;;;;;;5070353;28;20212;-79
2021/12/04 14:44:14;;;;;;;6.30;4.43;;;3.80;99.90;;;;;;5051930;28;20770;-79
2021/12/04 14:46:40;;;;;;;5.67;4.50;;;3.70;99.90;;;;;;5052081;28;20198;-78
2021/12/04 14:49:09;;;;;;;51.87;35.30;;;3.70;99.90;;;;;;5049820;28;20259;-79
2021/12/04 14:51:35;;;;;;;27.27;22.20;;;3.80;99.90;;;;;;5067636;28;20209;-80
2021/12/04 14:54:01;;;;;;;10.97;8.90;;;3.70;99.90;;;;;;5067656;28;20216;-77
2021/12/04 14:56:29;;;;;;;7.77;6.93;;;3.70;99.90;;;;;;5051421;28;20178;-78
2021/12/04 14:58:56;;;;;;;6.13;5.53;;;3.70;99.90;;;;;;5049641;28;20213;-79
2021/12/04 15:01:26;;;;;;;6.30;5.10;;;3.70;99.90;;;;;;5070197;28;20726;-77
2021/12/04 15:03:57;;;;;;;6.27;5.57;;;3.70;99.90;;;;;;5050798;28;20245;-77
2021/12/04 15:06:25;;;;;;;6.40;5.70;;;3.60;99.90;;;;;;5068634;28;20645;-80
2021/12/04 15:09:14;;;;;;;5.73;4.93;;;3.50;99.90;;;;;;5050825;28;20339;-79
2021/12/04 15:11:44;;;;;;;5.70;4.73;;;3.50;99.90;;;;;;5051383;28;20668;-77
2021/12/04 15:14:13;;;;;;;7.73;5.60;;;3.40;99.90;;;;;;5050204;28;20218;-78
2021/12/04 15:16:47;;;;;;;5.97;4.73;;;3.50;99.90;;;;;;5068259;28;20236;-76
2021/12/04 15:19:21;;;;;;;6.63;5.20;;;3.50;99.90;;;;;;5068621;28;20441;-78
2021/12/04 15:21:57;;;;;;;10.37;9.00;;;3.60;99.90;;;;;;5068569;28;20181;-77
2021/12/04 15:24:29;;;;;;;9.03;5.67;;;3.50;99.90;;;;;;5068529;28;20184;-80
2021/12/04 15:26:58;;;;;;;6.77;5.10;;;3.50;99.90;;;;;;5050306;28;20196;-78
2021/12/04 15:29:27;;;;;;;8.23;5.83;;;3.50;99.90;;;;;;5068070;28;20193;-77
2021/12/04 15:31:55;;;;;;;7.50;6.43;;;3.60;99.90;;;;;;5068059;28;20550;-78
2021/12/04 15:34:33;;;;;;;7.73;5.63;;;3.60;99.90;;;;;;5079532;28;20205;-76
2021/12/04 15:37:03;;;;;;;7.20;5.63;;;3.60;99.90;;;;;;5084100;28;20870;-77
2021/12/04 15:39:34;;;;;;;7.63;5.50;;;3.50;99.90;;;;;;5084384;28;20204;-75
2021/12/04 15:45:15;;;;;;;7.67;5.77;;;3.50;99.90;;;;;;5078531;28;20439;-78
2021/12/04 15:47:47;;;;;;;7.47;5.93;;;3.50;99.90;;;;;;5074034;28;20382;-75
2021/12/04 15:55:29;;;;;;;6.23;5.33;;;3.40;99.90;;;;;;5076440;28;20199;-79
2021/12/04 15:57:59;;;;;;;8.83;6.40;;;3.40;99.90;;;;;;5073441;28;20266;-78
2021/12/04 16:00:30;;;;;;;7.27;5.87;;;3.40;99.90;;;;;;5069989;28;20260;-79
2021/12/04 16:02:58;;;;;;;7.40;5.83;;;3.40;99.90;;;;;;5067485;28;20188;-80
2021/12/04 16:05:28;;;;;;;7.30;5.53;;;3.40;99.90;;;;;;5049995;28;20607;-80
2021/12/04 16:08:13;;;;;;;8.00;6.07;;;3.40;99.90;;;;;;5049470;28;20311;-79
2021/12/04 16:10:43;;;;;;;7.87;5.87;;;3.40;99.90;;;;;;5067559;28;20185;-79
2021/12/04 16:13:11;;;;;;;7.43;4.93;;;3.40;99.90;;;;;;5068300;28;20196;-77
2021/12/04 16:15:38;;;;;;;8.10;5.53;;;3.30;99.90;;;;;;5067538;28;20850;-79